LSZS Airport Information

Runway Information
Runway 03 Length 5905 ft width 130 ft
Elevation 5600 ft Threshold 0 ft Heading 29
Runway 21 Length 5905 ft Width 130 ft
Elevation 5574 ft Threshold 360 ft Heading 209
Airport Frequencies
Type A/G Name GLIDER Frequency 123.67 MHZ
Type ATIS Name ATIS Frequency 136.6 MHZ
Type GND Name GND Frequency 121.6 MHZ
Type INFO Name INFO Frequency 138.05 MHZ
Type TWR Name TWR Frequency 135.325 MHZ
Airport Navaids
Airport Weather Information & NOTAM
ADDS - METARS form results

(1544 UTC 25 June 2018)
 
METAR text: LSZS 251520Z VRB07KT 9999 BKN060 16/03 Q1022 RMK R
Conditions at: LSZS (SAMEDAN , CH) observed 1520 UTC 25 June 2018
Temperature: 16.0°C (61°F)
Dewpoint: 3.0°C (37°F) [RH = 42%]
Pressure (altimeter): 30.18 inches Hg (1022.0 mb)
Winds: variable direction winds at 8 MPH (7 knots; 3.6 m/s)
Visibility: 6 or more miles (10+ km)
Ceiling: 6000 feet AGL
Clouds: broken clouds at 6000 feet AGL
Weather: no significant weather observed at this time

METAR text: LSZS 251450Z 35009KT 9999 BKN060 14/01 Q1022 RMK Q
Conditions at: LSZS (SAMEDAN , CH) observed 1450 UTC 25 June 2018
Temperature: 14.0°C (57°F)
Dewpoint: 1.0°C (34°F) [RH = 41%]
Pressure (altimeter): 30.18 inches Hg (1022.0 mb)
Winds: from the N (350 degrees) at 10 MPH (9 knots; 4.7 m/s)
Visibility: 6 or more miles (10+ km)
Ceiling: 6000 feet AGL
Clouds: broken clouds at 6000 feet AGL
Weather: no significant weather observed at this time